Time;durP1;ratioP1;P1;durP2;ratioP2;P2;SDS_P1;SDS_P2;PMS_P1;PMS_P2;Temp;Humidity;BMP_temperature;BMP_pressure;BME280_temperature;BME280_humidity;BME280_pressure;Samples;Min_cycle;Max_cycle;Signal;HPM_P1;HPM_P2
2023/03/10 00:01:19;;;;;;;;;1.67;0.00;;;;;27.51;29.01;98795.97;5034363;28;45554;-73
2023/03/10 00:03:45;;;;;;;;;1.00;1.00;;;;;27.43;29.62;98783.56;5034475;28;45557;-72
2023/03/10 00:06:13;;;;;;;;;2.00;1.00;;;;;27.29;29.59;98774.81;5034998;28;45426;-72
2023/03/10 00:08:38;;;;;;;;;0.67;0.67;;;;;27.53;29.57;98793.81;5034999;28;46457;-73
2023/03/10 00:11:05;;;;;;;;;0.00;0.00;;;;;27.49;29.06;98793.47;5033165;28;45504;-72
2023/03/10 00:13:30;;;;;;;;;1.00;1.00;;;;;27.50;29.10;98781.50;5034050;28;45464;-73
2023/03/10 00:15:56;;;;;;;;;0.00;0.00;;;;;27.47;28.84;98791.00;5037957;28;45415;-72
2023/03/10 00:18:21;;;;;;;;;0.00;0.00;;;;;27.42;29.03;98771.03;5047069;28;46590;-72
2023/03/10 00:20:50;;;;;;;;;1.00;1.00;;;;;27.48;29.40;98789.09;5033674;28;46787;-72
2023/03/10 00:23:15;;;;;;;;;1.33;1.00;;;;;27.47;29.25;98771.13;5047456;28;45454;-72
2023/03/10 00:25:41;;;;;;;;;0.00;0.00;;;;;27.48;29.69;98787.22;5042536;28;45622;-72
2023/03/10 00:28:06;;;;;;;;;0.00;0.00;;;;;27.45;29.38;98762.34;5047108;28;45468;-72
2023/03/10 00:30:34;;;;;;;;;2.00;0.33;;;;;27.38;29.04;98756.22;5043106;28;45443;-72
2023/03/10 00:33:00;;;;;;;;;0.00;0.00;;;;;27.40;29.13;98754.91;5052826;28;45762;-72
2023/03/10 00:35:25;;;;;;;;;2.00;0.00;;;;;27.38;28.90;98751.59;5040912;28;45404;-73
2023/03/10 00:37:50;;;;;;;;;0.33;0.33;;;;;27.39;29.31;98752.44;5033694;28;45535;-72
2023/03/10 00:40:16;;;;;;;;;0.00;0.00;;;;;27.32;28.97;98747.13;5040312;28;45459;-72
2023/03/10 00:42:43;;;;;;;;;0.00;0.00;;;;;27.40;29.50;98751.34;5045628;28;45561;-72
2023/03/10 00:45:09;;;;;;;;;1.00;1.00;;;;;27.42;29.08;98749.22;5044164;28;45447;-72
2023/03/10 00:47:35;;;;;;;;;0.00;0.00;;;;;27.09;28.96;98684.34;5046585;28;45859;-72
2023/03/10 00:50:00;;;;;;;;;0.00;0.00;;;;;27.33;28.92;98726.97;5045938;28;45518;-72
2023/03/10 00:52:26;;;;;;;;;0.00;0.00;;;;;27.21;28.93;98714.25;5033512;28;45729;-72
2023/03/10 00:54:52;;;;;;;;;1.00;1.00;;;;;27.31;28.85;98727.25;5044336;28;45407;-72
2023/03/10 00:57:18;;;;;;;;;0.00;0.00;;;;;27.35;29.53;98733.03;5047394;28;46323;-73
2023/03/10 00:59:43;;;;;;;;;0.00;0.00;;;;;27.22;29.10;98706.91;5046147;28;45593;-72
2023/03/10 01:02:09;;;;;;;;;0.33;0.33;;;;;27.21;29.43;98708.81;5040059;28;45531;-72
2023/03/10 01:04:34;;;;;;;;;0.33;0.33;;;;;27.29;28.99;98723.09;5037107;28;45582;-72
2023/03/10 01:06:59;;;;;;;;;0.00;0.00;;;;;27.30;29.48;98731.00;5042114;28;46211;-73
2023/03/10 01:09:25;;;;;;;;;0.00;0.00;;;;;27.34;28.84;98728.66;5031511;28;45720;-72
2023/03/10 01:11:50;;;;;;;;;1.00;1.00;;;;;27.31;29.08;98713.63;5047163;28;45349;-72
2023/03/10 01:14:16;;;;;;;;;1.00;0.67;;;;;27.36;28.98;98729.22;5032930;28;45477;-73
2023/03/10 01:16:42;;;;;;;;;1.00;1.00;;;;;27.33;29.33;98707.91;5032932;28;45513;-73
2023/03/10 01:19:07;;;;;;;;;0.00;0.00;;;;;27.37;28.94;98719.97;5032806;28;45484;-72
2023/03/10 01:21:35;;;;;;;;;0.00;0.00;;;;;27.30;29.49;98724.75;5032782;28;45871;-72
2023/03/10 01:24:02;;;;;;;;;0.00;0.00;;;;;27.26;29.60;98726.31;5019880;28;45445;-72
2023/03/10 01:26:28;;;;;;;;;0.00;0.00;;;;;27.29;28.98;98728.53;5049105;28;46834;-73
2023/03/10 01:28:54;;;;;;;;;2.00;0.00;;;;;27.31;29.48;98732.69;5048339;28;45471;-73
2023/03/10 01:31:19;;;;;;;;;0.00;0.00;;;;;27.26;29.09;98716.22;5049519;28;45445;-73
2023/03/10 01:33:45;;;;;;;;;1.00;1.00;;;;;27.32;29.14;98741.66;5046951;28;45406;-72
2023/03/10 01:36:16;;;;;;;;;0.00;0.00;;;;;27.33;29.65;98738.72;5036135;28;45552;-72
2023/03/10 01:38:43;;;;;;;;;0.33;0.33;;;;;27.31;28.97;98732.69;5036567;28;45444;-72
2023/03/10 01:41:10;;;;;;;;;0.00;0.00;;;;;27.28;28.96;98711.38;5017898;28;45539;-73
2023/03/10 01:43:41;;;;;;;;;0.00;0.00;;;;;27.36;29.43;98726.50;5035545;28;45288;-73
2023/03/10 01:46:34;;;;;;;;;0.33;0.33;;;;;27.35;29.26;98722.94;5034956;28;46622;-73
2023/03/10 01:49:06;;;;;;;;;0.00;0.00;;;;;27.22;29.07;98696.81;5034665;28;45570;-73
2023/03/10 01:51:34;;;;;;;;;0.00;0.00;;;;;27.20;28.87;98684.53;5036365;28;45713;-72
2023/03/10 01:54:03;;;;;;;;;1.00;0.33;;;;;27.29;28.73;98696.69;5035554;28;45519;-73
2023/03/10 01:56:29;;;;;;;;;0.00;0.00;;;;;27.21;28.82;98680.72;5032659;28;45376;-72
2023/03/10 01:58:55;;;;;;;;;0.00;0.00;;;;;27.17;29.15;98679.56;5035451;28;45697;-72
2023/03/10 02:01:20;;;;;;;;;1.00;1.00;;;;;27.21;28.77;98695.19;5036255;28;45819;-73
2023/03/10 02:03:53;;;;;;;;;2.00;1.00;;;;;27.05;29.10;98652.41;5036284;28;45514;-73
2023/03/10 02:06:21;;;;;;;;;0.67;0.67;;;;;27.14;28.79;98664.53;5035687;28;45423;-72
2023/03/10 02:08:53;;;;;;;;;1.00;0.00;;;;;27.13;29.34;98656.63;5035369;28;45513;-72
2023/03/10 02:11:19;;;;;;;;;1.33;0.00;;;;;27.28;28.84;98662.34;5036623;28;45394;-72
2023/03/10 02:13:45;;;;;;;;;0.33;0.33;;;;;27.31;29.04;98674.66;5037759;28;45554;-72
2023/03/10 02:16:11;;;;;;;;;2.67;0.33;;;;;27.26;28.75;98653.59;5046311;28;46108;-73
2023/03/10 02:18:38;;;;;;;;;0.67;0.67;;;;;27.25;29.43;98654.66;5054896;28;45509;-73
2023/03/10 02:21:41;;;;;;;;;0.33;0.00;;;;;27.23;29.17;98657.63;5047216;28;45491;-72
2023/03/10 02:24:20;;;;;;;;;0.00;0.00;;;;;27.29;28.78;98693.97;5028570;28;45477;-73
2023/03/10 02:26:48;;;;;;;;;0.00;0.00;;;;;27.28;29.27;98696.94;5027478;28;45573;-72
2023/03/10 02:29:24;;;;;;;;;0.67;0.00;;;;;27.14;29.42;98677.34;5009766;28;45713;-72
2023/03/10 02:31:51;;;;;;;;;0.00;0.00;;;;;27.20;29.23;98684.53;5012852;28;45477;-72
2023/03/10 02:34:17;;;;;;;;;1.00;1.00;;;;;27.19;29.37;98700.06;5010573;28;45437;-72
2023/03/10 02:36:43;;;;;;;;;1.00;0.00;;;;;27.17;28.57;98688.56;5012701;28;45672;-72
2023/03/10 02:39:08;;;;;;;;;2.00;0.00;;;;;27.15;29.23;98689.88;5012965;28;45599;-72
2023/03/10 02:41:35;;;;;;;;;1.00;1.00;;;;;27.21;29.41;98692.47;5012707;28;45601;-73
2023/03/10 02:44:05;;;;;;;;;2.67;0.00;;;;;27.17;29.00;98687.72;5016859;28;45655;-73
2023/03/10 02:46:31;;;;;;;;;0.00;0.00;;;;;27.13;29.29;98641.09;5015033;28;46688;-72
2023/03/10 02:49:00;;;;;;;;;2.00;1.67;;;;;27.02;29.19;98621.03;5016676;28;45787;-72
2023/03/10 02:51:30;;;;;;;;;0.00;0.00;;;;;27.16;29.27;98656.97;5014174;28;45763;-73
2023/03/10 02:53:56;;;;;;;;;0.00;0.00;;;;;27.14;29.37;98648.19;5016716;28;45651;-72
2023/03/10 02:56:21;;;;;;;;;0.00;0.00;;;;;27.16;28.75;98650.69;5012502;28;45551;-72
2023/03/10 02:58:47;;;;;;;;;0.00;0.00;;;;;27.13;29.45;98645.75;5012856;28;45568;-72
2023/03/10 03:01:12;;;;;;;;;0.00;0.00;;;;;27.08;28.85;98635.56;5033343;28;45836;-73
2023/03/10 03:03:38;;;;;;;;;3.00;1.00;;;;;27.15;29.50;98646.31;5038682;28;45634;-73
2023/03/10 03:06:04;;;;;;;;;0.00;0.00;;;;;27.16;28.71;98646.06;5041186;28;46092;-72
2023/03/10 03:08:29;;;;;;;;;1.00;1.00;;;;;27.18;28.82;98641.19;5038535;28;45619;-73
2023/03/10 03:10:55;;;;;;;;;0.33;0.33;;;;;27.10;28.92;98634.25;5042111;28;45768;-72
2023/03/10 03:13:20;;;;;;;;;0.00;0.00;;;;;27.14;29.37;98637.31;5035747;28;45590;-72
2023/03/10 03:15:47;;;;;;;;;1.00;1.00;;;;;27.19;28.75;98642.03;5039322;28;46084;-73
2023/03/10 03:18:12;;;;;;;;;0.00;0.00;;;;;27.14;29.22;98636.50;5043321;28;45483;-72
2023/03/10 03:20:39;;;;;;;;;0.00;0.00;;;;;27.16;29.27;98643.34;5043726;28;45417;-73
2023/03/10 03:23:06;;;;;;;;;1.00;1.00;;;;;27.13;29.00;98638.38;5038021;28;45559;-72
2023/03/10 03:25:35;;;;;;;;;1.00;0.00;;;;;27.18;28.84;98640.38;5032954;28;46213;-72
2023/03/10 03:28:00;;;;;;;;;0.00;0.00;;;;;27.14;28.72;98631.84;5047137;28;45461;-73
2023/03/10 03:30:27;;;;;;;;;0.00;0.00;;;;;27.16;28.83;98637.06;5049173;28;45376;-72
2023/03/10 03:32:53;;;;;;;;;1.00;1.00;;;;;27.11;29.35;98629.66;5054350;28;45446;-72
2023/03/10 03:35:27;;;;;;;;;1.00;1.00;;;;;27.10;29.25;98614.38;5049567;28;46632;-73
2023/03/10 03:37:53;;;;;;;;;0.00;0.00;;;;;27.15;29.44;98638.97;5053344;28;46425;-72
2023/03/10 03:40:20;;;;;;;;;0.00;0.00;;;;;27.05;28.83;98628.72;5040354;28;45500;-73
2023/03/10 03:42:48;;;;;;;;;1.00;1.00;;;;;27.08;29.41;98630.13;5033693;28;45878;-73
2023/03/10 03:45:17;;;;;;;;;1.00;1.00;;;;;27.15;29.40;98619.91;5033826;28;46294;-72
2023/03/10 03:47:43;;;;;;;;;0.00;0.00;;;;;27.08;28.85;98608.34;5033337;28;45463;-72
2023/03/10 03:50:11;;;;;;;;;0.00;0.00;;;;;27.08;28.71;98614.63;5034542;28;45397;-72
2023/03/10 03:52:37;;;;;;;;;1.00;1.00;;;;;27.13;28.97;98635.66;5034457;28;45435;-72
2023/03/10 03:55:03;;;;;;;;;0.00;0.00;;;;;27.12;28.85;98642.19;5032647;28;45690;-72
2023/03/10 03:57:29;;;;;;;;;1.00;0.33;;;;;27.09;29.32;98632.59;5034186;28;45436;-73
2023/03/10 03:59:54;;;;;;;;;0.00;0.00;;;;;27.07;29.13;98625.75;5033839;28;45574;-72
2023/03/10 04:02:19;;;;;;;;;0.00;0.00;;;;;27.12;29.25;98641.34;5033754;28;45478;-73
2023/03/10 04:04:45;;;;;;;;;1.00;0.00;;;;;27.07;29.14;98634.75;5034238;28;45491;-72
2023/03/10 04:07:11;;;;;;;;;1.00;1.00;;;;;27.13;28.65;98627.50;5033756;28;45506;-72
2023/03/10 04:09:41;;;;;;;;;1.00;1.00;;;;;27.09;29.40;98629.03;5033307;28;45562;-72
2023/03/10 04:12:08;;;;;;;;;1.00;1.00;;;;;27.08;28.62;98614.63;5034154;28;46137;-72
2023/03/10 04:14:33;;;;;;;;;0.67;0.00;;;;;27.14;28.84;98636.50;5037985;28;46373;-72
2023/03/10 04:16:58;;;;;;;;;0.00;0.00;;;;;27.13;29.15;98630.22;5033610;28;45427;-72
2023/03/10 04:19:24;;;;;;;;;0.00;0.00;;;;;27.15;29.11;98629.97;5033948;28;45486;-73
2023/03/10 04:21:49;;;;;;;;;0.00;0.00;;;;;27.17;28.77;98642.28;5048738;28;45551;-72
2023/03/10 04:24:15;;;;;;;;;0.67;0.67;;;;;27.18;28.93;98637.66;5044232;28;46349;-72
2023/03/10 04:26:40;;;;;;;;;0.00;0.00;;;;;27.22;28.90;98631.47;5048213;28;45943;-72
2023/03/10 04:29:05;;;;;;;;;0.00;0.00;;;;;27.20;29.05;98627.34;5048443;28;45417;-72
2023/03/10 04:31:31;;;;;;;;;0.00;0.00;;;;;27.23;28.82;98632.31;5041184;28;45593;-72
2023/03/10 04:33:56;;;;;;;;;0.33;0.33;;;;;27.29;28.64;98641.38;5052368;28;45839;-73
2023/03/10 04:36:21;;;;;;;;;0.00;0.00;;;;;27.23;28.73;98618.69;5035406;28;45816;-73
2023/03/10 04:38:47;;;;;;;;;0.33;0.33;;;;;27.34;28.84;98636.06;5041210;28;45474;-72
2023/03/10 04:41:12;;;;;;;;;0.00;0.00;;;;;27.37;28.69;98627.38;5048198;28;45663;-72
2023/03/10 04:43:38;;;;;;;;;0.33;0.33;;;;;27.41;29.00;98630.41;5044742;28;45439;-73
2023/03/10 04:46:04;;;;;;;;;0.00;0.00;;;;;27.46;28.62;98636.78;5036157;28;45520;-72
2023/03/10 04:48:30;;;;;;;;;0.00;0.00;;;;;27.46;29.10;98638.72;5052665;28;45385;-73
2023/03/10 04:50:58;;;;;;;;;0.00;0.00;;;;;27.48;29.07;98644.72;5039527;28;45498;-73
2023/03/10 04:53:23;;;;;;;;;0.00;0.00;;;;;27.51;28.39;98648.84;5051407;28;48422;-72
2023/03/10 04:55:50;;;;;;;;;0.00;0.00;;;;;27.48;28.59;98651.00;5041035;28;45781;-72
2023/03/10 04:58:20;;;;;;;;;0.33;0.33;;;;;27.48;28.54;98640.13;5053047;28;45475;-73
2023/03/10 05:00:45;;;;;;;;;0.00;0.00;;;;;27.48;29.02;98639.28;5043718;28;45595;-73
2023/03/10 05:03:11;;;;;;;;;2.00;0.67;;;;;27.53;29.10;98650.25;5037266;28;46109;-72
2023/03/10 05:05:37;;;;;;;;;0.67;0.00;;;;;27.55;28.97;98652.75;5039860;28;45908;-73
2023/03/10 05:08:03;;;;;;;;;0.00;0.00;;;;;27.49;29.07;98641.75;5056560;28;45439;-73
2023/03/10 05:10:28;;;;;;;;;0.00;0.00;;;;;27.51;29.17;98627.91;5045446;28;45485;-73
2023/03/10 05:12:54;;;;;;;;;2.00;0.00;;;;;27.69;29.12;98658.72;5046644;28;45494;-73
2023/03/10 05:15:20;;;;;;;;;0.00;0.00;;;;;27.68;28.78;98660.63;5040757;28;45516;-72
2023/03/10 05:17:45;;;;;;;;;1.00;1.00;;;;;27.71;28.96;98664.75;5036774;28;45405;-73
2023/03/10 05:20:12;;;;;;;;;0.00;0.00;;;;;27.72;28.64;98666.41;5036476;28;45408;-72
2023/03/10 05:22:37;;;;;;;;;0.00;0.00;;;;;27.69;28.37;98647.81;5037282;28;45450;-72
2023/03/10 05:25:04;;;;;;;;;0.00;0.00;;;;;27.68;28.39;98655.19;5036500;28;45523;-72
2023/03/10 05:27:31;;;;;;;;;0.00;0.00;;;;;27.74;28.59;98670.53;5036210;28;45805;-73
2023/03/10 05:29:57;;;;;;;;;2.33;0.33;;;;;27.71;28.45;98662.03;5038005;28;45499;-73
2023/03/10 05:32:22;;;;;;;;;0.00;0.00;;;;;27.76;28.24;98670.28;5035403;28;45409;-73
2023/03/10 05:34:47;;;;;;;;;0.00;0.00;;;;;27.67;28.56;98653.50;5036327;28;46174;-73
2023/03/10 05:37:13;;;;;;;;;0.00;0.00;;;;;27.75;28.92;98663.19;5036573;28;45738;-73
2023/03/10 05:39:38;;;;;;;;;1.67;0.00;;;;;27.66;28.71;98661.97;5036867;28;45663;-73
2023/03/10 05:42:03;;;;;;;;;0.00;0.00;;;;;27.76;28.75;98675.75;5036837;28;46427;-73
2023/03/10 05:44:29;;;;;;;;;0.00;0.00;;;;;27.73;28.38;98668.91;5036833;28;45500;-73
2023/03/10 05:46:54;;;;;;;;;0.00;0.00;;;;;27.68;28.71;98668.81;5035541;28;45455;-72
2023/03/10 05:49:20;;;;;;;;;0.00;0.00;;;;;27.72;28.72;98661.75;5032484;28;45789;-73
2023/03/10 05:51:45;;;;;;;;;0.00;0.00;;;;;27.76;28.22;98670.28;5036202;28;45613;-75
2023/03/10 05:54:10;;;;;;;;;2.00;1.00;;;;;27.73;28.16;98673.50;5032242;28;45590;-75
2023/03/10 05:56:36;;;;;;;;;0.00;0.00;;;;;27.70;28.77;98690.34;5034569;28;45412;-73
2023/03/10 05:59:01;;;;;;;;;0.00;0.00;;;;;27.71;28.51;98684.66;5037793;28;45485;-73
2023/03/10 06:01:27;;;;;;;;;1.00;0.00;;;;;27.68;28.91;98684.31;5032814;28;46068;-73
2023/03/10 06:03:52;;;;;;;;;1.00;0.00;;;;;27.67;28.99;98688.94;5034026;28;45574;-73
2023/03/10 06:06:18;;;;;;;;;0.00;0.00;;;;;27.67;28.39;98685.41;5033323;28;46827;-72
2023/03/10 06:08:43;;;;;;;;;0.00;0.00;;;;;27.69;28.24;98697.72;5032755;28;45393;-72
2023/03/10 06:11:08;;;;;;;;;0.00;0.00;;;;;27.69;28.19;98697.72;5031238;28;46381;-72
2023/03/10 06:13:34;;;;;;;;;0.67;0.00;;;;;27.65;28.85;98703.88;5034233;28;45605;-72
2023/03/10 06:16:02;;;;;;;;;0.00;0.00;;;;;27.68;28.33;98692.50;5046145;28;45440;-72
2023/03/10 06:18:28;;;;;;;;;0.00;0.00;;;;;27.66;28.21;98709.09;5033622;28;45874;-75
2023/03/10 06:20:54;;;;;;;;;1.00;0.00;;;;;27.62;28.11;98694.28;5039339;28;46931;-75
2023/03/10 06:23:22;;;;;;;;;0.00;0.00;;;;;27.64;28.27;98677.72;5049172;28;45561;-75
2023/03/10 06:26:06;;;;;;;;;0.33;0.00;;;;;27.65;28.66;98717.50;5043507;28;45516;-75
2023/03/10 06:28:34;;;;;;;;;0.00;0.00;;;;;27.61;28.29;98701.66;5039764;28;45550;-75
2023/03/10 06:31:01;;;;;;;;;0.00;0.00;;;;;27.66;28.51;98719.19;5042351;28;46204;-75
2023/03/10 06:33:27;;;;;;;;;0.00;0.00;;;;;27.69;28.99;98721.41;5049907;28;45534;-75
2023/03/10 06:35:53;;;;;;;;;0.33;0.00;;;;;27.71;28.38;98735.63;5050774;28;45445;-76
2023/03/10 06:38:19;;;;;;;;;0.33;0.33;;;;;27.74;29.05;98738.66;5043184;28;45570;-76
2023/03/10 06:40:45;;;;;;;;;2.00;1.00;;;;;27.78;28.54;98744.44;5056820;27;45876;-77
2023/03/10 06:43:10;;;;;;;;;0.00;0.00;;;;;27.78;28.61;98746.38;5033682;28;45503;-76
2023/03/10 06:45:35;;;;;;;;;0.00;0.00;;;;;27.81;28.53;98751.31;5040660;28;45807;-76
2023/03/10 06:48:01;;;;;;;;;0.67;0.33;;;;;27.82;29.08;98751.06;5048072;28;45451;-77
2023/03/10 06:50:26;;;;;;;;;3.00;2.33;;;;;27.80;28.72;98747.78;5033616;28;46197;-75
2023/03/10 06:52:51;;;;;;;;;1.00;1.00;;;;;27.75;29.15;98744.97;5032876;28;45468;-69
2023/03/10 06:55:17;;;;;;;;;1.33;1.33;;;;;27.81;28.58;98759.50;5035277;28;47610;-69
2023/03/10 06:57:42;;;;;;;;;3.33;1.00;;;;;27.81;29.03;98768.50;5035179;28;45591;-70
2023/03/10 07:00:10;;;;;;;;;3.00;1.00;;;;;27.86;29.20;98759.56;5032621;28;52957;-71
2023/03/10 07:02:38;;;;;;;;;2.33;1.00;;;;;27.88;29.74;98765.63;5033424;28;45455;-72
2023/03/10 07:05:05;;;;;;;;;2.00;2.00;;;;;27.91;29.13;98780.66;5033202;28;45575;-77
2023/03/10 07:07:31;;;;;;;;;1.00;1.00;;;;;27.95;29.05;98799.00;5033908;28;45583;-76
2023/03/10 07:09:56;;;;;;;;;1.33;1.33;;;;;27.96;29.45;98791.66;5033128;28;45734;-77
2023/03/10 07:12:23;;;;;;;;;0.67;0.67;;;;;27.97;29.68;98799.59;5034003;28;45522;-77
2023/03/10 07:14:49;;;;;;;;;1.67;1.67;;;;;27.99;29.08;98815.69;5038276;28;45495;-69
2023/03/10 07:17:15;;;;;;;;;1.00;1.00;;;;;27.96;29.62;98806.09;5050870;28;45507;-73
2023/03/10 07:19:40;;;;;;;;;4.33;3.00;;;;;27.90;29.58;98820.72;5033150;28;45394;-78
2023/03/10 07:22:05;;;;;;;;;3.33;1.00;;;;;27.93;29.54;98839.31;5032329;28;45283;-75
2023/03/10 07:24:31;;;;;;;;;1.00;1.00;;;;;27.88;29.74;98837.31;5020515;28;45407;-75
2023/03/10 07:26:59;;;;;;;;;4.33;3.00;;;;;27.88;29.09;98848.22;5032566;28;45360;-76
2023/03/10 07:29:24;;;;;;;;;2.33;1.00;;;;;27.81;29.64;98833.91;5034220;28;45430;-76
2023/03/10 07:31:49;;;;;;;;;1.67;1.67;;;;;27.84;29.62;98840.78;5033405;28;45451;-75
2023/03/10 07:34:14;;;;;;;;;1.00;1.00;;;;;27.86;29.14;98866.72;5043849;28;45392;-72
2023/03/10 07:36:40;;;;;;;;;0.67;0.67;;;;;27.88;29.19;98875.47;5033431;28;45611;-74
2023/03/10 07:39:05;;;;;;;;;1.00;1.00;;;;;27.91;29.70;98873.34;5034649;28;45509;-69
2023/03/10 07:41:31;;;;;;;;;3.33;1.67;;;;;27.88;29.67;98872.75;5034626;28;45496;-74
2023/03/10 07:43:56;;;;;;;;;2.00;0.00;;;;;27.91;29.40;98890.50;5035039;28;45456;-72
2023/03/10 07:46:21;;;;;;;;;4.00;1.00;;;;;27.94;30.13;98894.66;5034463;28;45559;-71
2023/03/10 07:48:47;;;;;;;;;2.00;2.00;;;;;27.98;29.51;98912.19;5032498;28;45451;-70
2023/03/10 07:51:12;;;;;;;;;2.33;0.67;;;;;27.92;30.07;98900.38;5034858;28;45484;-70
2023/03/10 07:53:38;;;;;;;;;0.00;0.00;;;;;27.96;30.05;98945.13;5036377;28;45455;-70
2023/03/10 07:56:05;;;;;;;;;2.33;1.00;;;;;27.98;29.62;98962.09;5034055;28;45471;-70
2023/03/10 07:58:30;;;;;;;;;0.00;0.00;;;;;27.98;29.56;98959.38;5032117;28;48536;-70
2023/03/10 08:00:57;;;;;;;;;2.00;0.33;;;;;27.98;29.41;98966.72;5034074;28;45956;-70
2023/03/10 08:03:24;;;;;;;;;0.00;0.00;;;;;27.98;30.08;98961.25;5026645;28;45755;-71
2023/03/10 08:05:50;;;;;;;;;0.00;0.00;;;;;28.00;30.01;98987.22;5033407;28;45871;-71
2023/03/10 08:08:16;;;;;;;;;1.67;0.67;;;;;28.03;29.37;98980.44;5032582;28;47474;-71
2023/03/10 08:10:41;;;;;;;;;2.67;0.67;;;;;28.05;29.47;99005.59;5039058;28;45421;-71
2023/03/10 08:13:07;;;;;;;;;0.00;0.00;;;;;28.02;29.94;98971.47;5033564;28;45476;-74
2023/03/10 08:15:32;;;;;;;;;2.00;1.00;;;;;28.08;29.77;99012.47;5031002;28;45514;-74
2023/03/10 08:17:58;;;;;;;;;1.00;0.00;;;;;28.11;29.98;99015.53;5042779;28;45475;-75
2023/03/10 08:20:24;;;;;;;;;0.00;0.00;;;;;28.12;29.59;99019.09;5053419;28;45391;-72
2023/03/10 08:22:52;;;;;;;;;0.33;0.33;;;;;28.11;29.16;99020.97;5039104;28;45301;-72
2023/03/10 08:25:17;;;;;;;;;0.00;0.00;;;;;28.11;29.82;99041.97;5041047;28;45465;-73
2023/03/10 08:27:42;;;;;;;;;1.67;0.00;;;;;28.12;29.28;99047.19;5033873;28;45375;-73
2023/03/10 08:30:09;;;;;;;;;1.00;0.00;;;;;28.11;29.18;99061.88;5034359;28;45539;-74
2023/03/10 08:32:34;;;;;;;;;0.00;0.00;;;;;28.11;29.16;99069.22;5032803;28;45755;-72
2023/03/10 08:34:59;;;;;;;;;0.00;0.00;;;;;28.07;29.23;99074.34;5046199;28;45497;-72
2023/03/10 08:37:25;;;;;;;;;0.00;0.00;;;;;28.09;29.65;99087.75;5043382;28;46517;-73
2023/03/10 08:39:52;;;;;;;;;1.00;1.00;;;;;28.07;29.72;99090.72;5045574;28;45505;-73
2023/03/10 08:42:17;;;;;;;;;0.00;0.00;;;;;28.07;29.51;99107.06;5031877;28;45404;-73
2023/03/10 08:44:44;;;;;;;;;0.00;0.00;;;;;28.07;29.67;99117.16;5045327;28;45662;-73
2023/03/10 08:47:09;;;;;;;;;0.00;0.00;;;;;28.11;29.01;99126.50;5038276;28;45515;-74
2023/03/10 08:49:35;;;;;;;;;0.33;0.00;;;;;28.12;29.25;99139.91;5046744;28;45585;-74
2023/03/10 08:52:00;;;;;;;;;0.67;0.67;;;;;28.17;29.30;99149.28;5042583;28;45476;-74
2023/03/10 08:54:26;;;;;;;;;0.00;0.00;;;;;28.19;29.76;99141.69;5047173;28;45491;-74
2023/03/10 08:56:52;;;;;;;;;0.00;0.00;;;;;28.22;29.26;99152.97;5043861;28;45488;-75
2023/03/10 08:59:18;;;;;;;;;1.00;0.00;;;;;28.25;29.58;99138.84;5046736;28;45445;-73
2023/03/10 09:01:44;;;;;;;;;1.00;0.00;;;;;28.27;29.17;99174.91;5041826;28;45759;-73
2023/03/10 09:04:10;;;;;;;;;0.00;0.00;;;;;28.28;29.46;99143.84;5043566;28;45554;-72
2023/03/10 09:06:36;;;;;;;;;1.00;0.00;;;;;28.31;29.56;99174.44;5033236;28;46114;-73
2023/03/10 09:09:03;;;;;;;;;0.00;0.00;;;;;28.28;29.30;99154.75;5036228;28;45464;-77
2023/03/10 09:11:31;;;;;;;;;0.00;0.00;;;;;28.34;29.42;99172.06;5043547;28;45530;-75
2023/03/10 09:13:58;;;;;;;;;1.33;0.00;;;;;28.36;29.52;99177.28;5035048;28;45432;-74
2023/03/10 09:16:24;;;;;;;;;0.00;0.00;;;;;28.39;29.87;99194.00;5049163;28;47630;-73
2023/03/10 09:18:49;;;;;;;;;0.00;0.00;;;;;28.38;30.07;99203.25;5033999;28;45506;-72
2023/03/10 09:21:17;;;;;;;;;1.33;0.00;;;;;28.39;29.58;99224.03;5050713;28;45404;-71
2023/03/10 09:23:44;;;;;;;;;0.00;0.00;;;;;28.40;29.52;99238.47;5052871;28;45423;-72
2023/03/10 09:26:09;;;;;;;;;0.00;0.00;;;;;28.40;29.64;99258.41;5043981;28;45501;-72
2023/03/10 09:28:35;;;;;;;;;0.00;0.00;;;;;28.43;30.18;99257.09;5037430;28;45427;-73
2023/03/10 09:31:03;;;;;;;;;0.00;0.00;;;;;28.46;29.53;99266.72;5033738;28;45362;-73
2023/03/10 09:33:28;;;;;;;;;3.00;0.00;;;;;28.43;30.06;99276.22;5041063;28;45560;-73
2023/03/10 09:35:56;;;;;;;;;1.67;0.00;;;;;28.48;30.25;99278.25;5035470;28;47015;-72
2023/03/10 09:38:21;;;;;;;;;0.00;0.00;;;;;28.43;30.19;99283.56;5050706;28;45585;-73
2023/03/10 09:40:55;;;;;;;;;2.00;0.67;;;;;28.45;29.70;99293.19;5040783;28;45410;-72
2023/03/10 09:43:22;;;;;;;;;0.00;0.00;;;;;28.44;29.57;99310.59;5037681;28;45432;-74
2023/03/10 09:45:56;;;;;;;;;0.00;0.00;;;;;28.48;29.45;99333.63;5046111;28;46124;-75
2023/03/10 09:48:24;;;;;;;;;0.00;0.00;;;;;28.46;30.00;99308.50;5023190;28;45517;-74
2023/03/10 13:18:20;;;;;;;;;1.00;0.25;;;;;18.26;40.44;99839.47;5109323;27;45886;-74
2023/03/10 13:20:47;;;;;;;;;0.00;0.00;;;;;18.74;41.30;99840.97;5111354;27;45475;-72
2023/03/10 13:23:20;;;;;;;;;1.00;1.00;;;;;19.39;41.51;99846.88;5108669;27;45471;-71
2023/03/10 13:25:58;;;;;;;;;1.00;0.50;;;;;20.42;41.51;99879.91;5111169;27;45385;-72
2023/03/10 13:28:25;;;;;;;;;1.50;1.50;;;;;21.06;40.63;99856.75;5109306;27;45547;-71
2023/03/10 13:30:51;;;;;;;;;1.75;1.00;;;;;21.88;39.97;99888.97;5108418;27;45627;-71
2023/03/10 13:33:23;;;;;;;;;3.00;1.25;;;;;22.37;39.25;99880.50;5109096;27;45487;-71
2023/03/10 13:35:48;;;;;;;;;1.00;1.00;;;;;23.01;39.09;99910.88;5100311;27;45346;-70
2023/03/10 13:38:17;;;;;;;;;2.00;0.00;;;;;23.57;38.07;99916.88;5105086;27;45697;-71
2023/03/10 13:40:48;;;;;;;;;1.00;1.00;;;;;23.90;37.41;99910.16;5101314;27;45457;-71
2023/03/10 13:43:43;;;;;;;;;1.00;1.00;;;;;24.47;37.05;99937.47;5108656;27;45359;-72
2023/03/10 13:46:26;;;;;;;;;0.33;0.33;;;;;24.81;36.31;99941.31;5110713;27;45573;-73
2023/03/10 13:48:54;;;;;;;;;2.00;1.00;;;;;24.95;35.84;99927.88;5094553;27;45494;-70
2023/03/10 13:51:21;;;;;;;;;0.00;0.00;;;;;25.36;35.28;99969.72;5107428;27;45441;-71
2023/03/10 13:53:51;;;;;;;;;0.00;0.00;;;;;25.42;35.26;99981.66;5109313;27;45508;-71
2023/03/10 13:56:38;;;;;;;;;3.33;0.67;;;;;25.75;34.75;100013.66;5096722;27;45803;-71
2023/03/10 13:59:05;;;;;;;;;0.33;0.33;;;;;25.78;34.29;99986.91;5108093;27;46549;-71
2023/03/10 14:01:42;;;;;;;;;3.00;0.00;;;;;26.08;33.61;100014.84;5107528;27;45545;-72
2023/03/10 14:04:15;;;;;;;;;2.00;0.67;;;;;26.13;33.63;99996.03;5112108;27;45710;-72
2023/03/10 14:06:41;;;;;;;;;1.00;1.00;;;;;26.34;33.16;100043.19;5102331;27;45554;-71
2023/03/10 14:09:21;;;;;;;;;1.00;1.00;;;;;26.28;33.23;100058.47;5107714;27;46230;-71
2023/03/10 14:11:48;;;;;;;;;0.33;0.33;;;;;26.50;33.06;100091.81;5102522;27;46496;-72
2023/03/10 14:14:31;;;;;;;;;0.00;0.00;;;;;26.47;32.82;100059.56;5097142;27;45518;-72
2023/03/10 14:16:59;;;;;;;;;2.00;0.00;;;;;26.53;32.47;100071.50;5108762;27;45551;-72
2023/03/10 14:19:40;;;;;;;;;1.33;1.33;;;;;26.81;32.74;100090.41;5102956;27;46706;-70
2023/03/10 14:22:21;;;;;;;;;1.00;1.00;;;;;26.83;32.77;100096.50;5109774;27;45489;-71
2023/03/10 14:24:46;;;;;;;;;2.00;1.00;;;;;26.80;32.14;100102.34;5109839;27;46362;-71
2023/03/10 14:27:12;;;;;;;;;0.00;0.00;;;;;26.85;31.96;100104.44;5110328;27;45549;-71
2023/03/10 14:29:39;;;;;;;;;2.33;0.00;;;;;26.94;31.73;100102.41;5080995;27;45552;-71
2023/03/10 14:32:05;;;;;;;;;0.00;0.00;;;;;27.01;32.09;100127.75;5096393;27;45485;-71
2023/03/10 14:34:30;;;;;;;;;0.00;0.00;;;;;27.18;31.84;100160.06;5093355;27;45880;-71
2023/03/10 14:36:56;;;;;;;;;0.00;0.00;;;;;27.06;32.09;100124.41;5112338;27;45645;-71
2023/03/10 14:39:21;;;;;;;;;0.00;0.00;;;;;27.17;31.35;100145.59;5082031;27;45469;-71
2023/03/10 14:41:46;;;;;;;;;0.00;0.00;;;;;27.14;31.70;100128.81;5096325;27;45593;-72
2023/03/10 14:44:12;;;;;;;;;0.33;0.33;;;;;27.19;31.27;100137.22;5084266;27;45793;-72
2023/03/10 14:46:37;;;;;;;;;0.00;0.00;;;;;27.27;31.64;100134.28;5094186;27;45545;-72
2023/03/10 14:49:09;;;;;;;;;2.00;1.00;;;;;27.28;31.23;100154.19;5083046;27;45934;-72
2023/03/10 14:51:35;;;;;;;;;0.00;0.00;;;;;27.36;31.62;100156.72;5096684;27;45445;-71
2023/03/10 14:54:00;;;;;;;;;2.00;0.00;;;;;27.55;31.18;100198.63;5084539;27;45581;-71
2023/03/10 14:56:26;;;;;;;;;0.00;0.00;;;;;27.37;31.62;100174.72;5088087;27;45383;-75
2023/03/10 14:58:53;;;;;;;;;0.33;0.33;;;;;27.62;31.25;100232.22;5084928;27;46355;-70